WetterOnline ( http://www.wetteronline.de )

Wetter aktuell Kassel

Aktuelles Wetter: Schauenburg-Elgershausen (317m)

6-stündlich | Neueste Meldungen
Ortszeit Temperatur Wetter
Di, 23.01. 13:00 4.9° C bedeckt
Di, 23.01. 7:00 2.9° C bedeckt
Di, 23.01. 1:00 2.7° C Sprühregen
Mo, 22.01. 19:00 2.0° C Sprühregen
Mo, 22.01. 13:00 1.1° C bewölkt
Mo, 22.01. 7:00 -0.1° C gefr. Sprühregen
Mo, 22.01. 1:00 -0.3° C bedeckt
So, 21.01. 19:00 -0.2° C bedeckt
Ortszeit Temperatur Wetter
Di, 23.01. 15:00 5.3° C bedeckt
Di, 23.01. 14:50 5.3° C bedeckt
Di, 23.01. 14:40 5.2° C bedeckt
Di, 23.01. 14:30 5.2° C bedeckt
Di, 23.01. 14:20 5.2° C bedeckt
Di, 23.01. 14:10 5.1° C bedeckt
Di, 23.01. 14:00 4.9° C bedeckt
Di, 23.01. 13:30 4.9° C bedeckt
Di, 23.01. 13:00 4.9° C bedeckt
Di, 23.01. 12:30 4.8° C bedeckt
Di, 23.01. 12:00 4.8° C bedeckt
Ortszeit Relative Feuchte Sichtweite
Di, 23.01. 13:00 87% 15 km
Di, 23.01. 7:00 95% 11 km
Di, 23.01. 1:00 94% 12 km
Mo, 22.01. 19:00 99% 5.0 km
Mo, 22.01. 13:00 95% 9 km
Mo, 22.01. 7:00 94% 6 km
Mo, 22.01. 1:00 94% 9 km
So, 21.01. 19:00 99% 4.8 km
Ortszeit Relative Feuchte Sichtweite
Di, 23.01. 15:00 82% 29 km
Di, 23.01. 14:50 82% -
Di, 23.01. 14:40 83% -
Di, 23.01. 14:30 86% 20 km
Di, 23.01. 14:20 86% -
Di, 23.01. 14:10 85% -
Di, 23.01. 14:00 87% 19 km
Di, 23.01. 13:30 88% 15 km
Di, 23.01. 13:00 87% 15 km
Di, 23.01. 12:30 87% 16 km
Di, 23.01. 12:00 87% 19 km
Ortszeit Niederschlagsmenge Niederschlagsart
Di, 23.01. 13:00 0.1 l/m2 in 6 Std. Regen
Di, 23.01. 7:00 3 l/m2 in 12 Std. Regen
Di, 23.01. 1:00 0.7 l/m2 in 6 Std. Regen
Mo, 22.01. 19:00 3 l/m2 in 12 Std. Regen
Mo, 22.01. 13:00 3 l/m2 in 6 Std. Schnee, Regen
Mo, 22.01. 7:00 0.2 l/m2 in 12 Std. Schnee, Sprühregen
Mo, 22.01. 1:00 0.0 l/m2 in 6 Std. -
So, 21.01. 19:00 1 l/m2 in 12 Std. Schnee, Sprühregen
Ortszeit Niederschlagsmenge Niederschlagsart
Di, 23.01. 15:00 0.0 l/m2 in 1 Std. -
Di, 23.01. 14:50 keine Meldung -
Di, 23.01. 14:40 keine Meldung -
Di, 23.01. 14:30 0.0 l/m2 in 1 Std. -
Di, 23.01. 14:20 keine Meldung -
Di, 23.01. 14:10 keine Meldung -
Di, 23.01. 14:00 0.0 l/m2 in 1 Std. -
Di, 23.01. 13:30 0.0 l/m2 in 1 Std. -
Di, 23.01. 13:00 0.0 l/m2 in 1 Std. Regen
Di, 23.01. 12:30 0.0 l/m2 in 1 Std. -
Di, 23.01. 12:00 0.0 l/m2 in 1 Std. -
Ortszeit Stärke Spitze Richtung
km/h Bft. km/h Grad Sektor
Di, 23.01. 13:00 7 2 14 200° S
Di, 23.01. 7:00 7 2 22 300° NW
Di, 23.01. 1:00 2 1 17 320° NW
Mo, 22.01. 19:00 0 0 11 - -
Mo, 22.01. 13:00 4 1 25 150° SO
Mo, 22.01. 7:00 11 2 29 140° SO
Mo, 22.01. 1:00 7 2 14 90° O
So, 21.01. 19:00 0 0 14 - -
Ortszeit Stärke Spitze Richtung
km/h Bft. km/h Grad Sektor
Di, 23.01. 15:00 7 2 18 200° S
Di, 23.01. 14:50 7 2 - 200° S
Di, 23.01. 14:40 7 2 - 220° SW
Di, 23.01. 14:30 7 2 14 210° SW
Di, 23.01. 14:20 7 2 - 210° SW
Di, 23.01. 14:10 7 2 - 220° SW
Di, 23.01. 14:00 9 2 15 190° S
Di, 23.01. 13:30 9 2 15 190° S
Di, 23.01. 13:00 7 2 14 200° S
Di, 23.01. 12:30 7 2 14 200° S
Di, 23.01. 12:00 7 2 13 200° S
Ortszeit Untergrenze Bedeckung Gattung
total tief tief mittel hoch
Di, 23.01. 13:00 1140 m 8/8 8/8 - - -
Di, 23.01. 7:00 570 m 8/8 8/8 - - -
Di, 23.01. 1:00 390 m 7/8 7/8 - - -
Mo, 22.01. 19:00 360 m 8/8 8/8 - - -
Mo, 22.01. 13:00 60 m 7/8 8/8 - - -
Mo, 22.01. 7:00 240 m 8/8 8/8 - - -
Mo, 22.01. 1:00 270 m 8/8 8/8 - - -
So, 21.01. 19:00 60 m 8/8 8/8 - - -
Ortszeit Bedeckungsgrad in Achtel und Wolkenuntergrenze
Di, 23.01. 15:00 8(960m)
Di, 23.01. 14:50 8(960m)
Di, 23.01. 14:40 8(990m)
Di, 23.01. 14:30 8(1080m)
Di, 23.01. 14:20 8(1080m)
Di, 23.01. 14:10 8(1080m)
Di, 23.01. 14:00 1(300m) 8(1080m)
Di, 23.01. 13:30 8(1110m) 8(1080m)
Di, 23.01. 13:00 8(1140m)
Di, 23.01. 12:30 8(1140m)
Di, 23.01. 12:00 8(1170m)
Ortszeit Luftdruck NN (hPa) Tendenz (hPa in 3 Std.)
Di, 23.01. 13:00 1024 + 0,6
Di, 23.01. 7:00 1022 + 2,1
Di, 23.01. 1:00 1017 + 2,6
Mo, 22.01. 19:00 1012 + 3,3
Mo, 22.01. 13:00 1008 - 0,6
Mo, 22.01. 7:00 1009 - 3,0
Mo, 22.01. 1:00 1014 - 2,2
So, 21.01. 19:00 1018 - 0,1
Ortszeit Luftdruck NN (hPa) Tendenz (hPa in 3 Std.)
Di, 23.01. 15:00 1023 - 0,9
Di, 23.01. 14:50 1023 keine Meldung
Di, 23.01. 14:40 1023 keine Meldung
Di, 23.01. 14:30 1023 - 0,9
Di, 23.01. 14:20 1023 keine Meldung
Di, 23.01. 14:10 1024 keine Meldung
Di, 23.01. 14:00 1024 - 0,5
Di, 23.01. 13:30 1024 + 0,2
Di, 23.01. 13:00 1024 + 0,6
Di, 23.01. 12:30 1024 + 1,0
Di, 23.01. 12:00 1024 + 1,2
Ortszeit Schneehöhe (cm)
Di, 23.01. 13:00 0
Di, 23.01. 7:00 0
Di, 23.01. 1:00 0
Mo, 22.01. 19:00 2
Mo, 22.01. 13:00 4
Mo, 22.01. 7:00 4
Mo, 22.01. 1:00 4
So, 21.01. 19:00 4
Ortszeit Schneehöhe (cm)
Di, 23.01. 15:00 0
Di, 23.01. 14:50 0
Di, 23.01. 14:40 0
Di, 23.01. 14:30 0
Di, 23.01. 14:20 0
Di, 23.01. 14:10 0
Di, 23.01. 14:00 0
Di, 23.01. 13:30 0
Di, 23.01. 13:00 0
Di, 23.01. 12:30 0
Di, 23.01. 12:00 0
Link zu dieser Seite / Seite empfehlen

Das Wetter in ...